createdAt,value
2019-06-19T00:00:52.436Z,81.07
2019-06-19T00:01:52.469Z,81.17
2019-06-19T00:02:53.094Z,81.07
2019-06-19T00:03:53.018Z,81.46
2019-06-19T00:04:52.686Z,81.46
2019-06-19T00:05:52.843Z,82.14
2019-06-19T00:06:52.441Z,82.71
2019-06-19T00:07:53.676Z,82.71
2019-06-19T00:08:52.424Z,83.48
2019-06-19T00:09:52.893Z,83.77
2019-06-19T00:10:52.942Z,83.39
2019-06-19T00:11:52.846Z,83.00
2019-06-19T00:12:52.958Z,83.19
2019-06-19T00:13:52.946Z,82.52
2019-06-19T00:14:52.665Z,82.42
2019-06-19T00:15:52.541Z,83.29
2019-06-19T00:16:53.387Z,83.19
2019-06-19T00:17:53.641Z,83.19
2019-06-19T00:18:53.177Z,83.19
2019-06-19T00:19:53.523Z,83.09
2019-06-19T00:20:52.256Z,83.39
2019-06-19T00:21:52.823Z,83.58
2019-06-19T00:22:53.077Z,83.39
2019-06-19T00:23:53.164Z,83.00
2019-06-19T00:24:53.369Z,83.39
2019-06-19T00:25:52.633Z,83.39
2019-06-19T00:26:51.335Z,83.63
2019-06-19T00:27:51.360Z,83.96
2019-06-19T00:28:51.380Z,83.73
2019-06-19T00:29:51.579Z,84.16
2019-06-19T00:30:53.125Z,84.59
2019-06-19T00:31:51.452Z,84.44
2019-06-19T00:32:51.498Z,84.50
2019-06-19T00:33:51.855Z,84.50
2019-06-19T00:34:51.522Z,84.69
2019-06-19T00:35:51.706Z,84.50
2019-06-19T00:36:51.565Z,84.21
2019-06-19T00:37:51.590Z,84.69
2019-06-19T00:38:51.621Z,85.46
2019-06-19T00:39:51.640Z,85.36
2019-06-19T00:40:51.903Z,85.17
2019-06-19T00:41:51.693Z,85.17
2019-06-19T00:42:51.798Z,85.55
2019-06-19T00:43:51.748Z,85.46
2019-06-19T00:44:51.755Z,85.27
2019-06-19T00:45:51.781Z,86.22
2019-06-19T00:46:51.803Z,86.32
2019-06-19T00:47:51.824Z,86.42
2019-06-19T00:48:52.069Z,86.42
2019-06-19T00:49:51.872Z,86.32
2019-06-19T00:50:51.896Z,86.42
2019-06-19T00:51:52.200Z,86.32
2019-06-19T00:52:51.942Z,86.32
2019-06-19T00:53:51.974Z,86.52
2019-06-19T00:54:51.991Z,85.75
2019-06-19T00:55:52.012Z,86.04
2019-06-19T00:56:52.037Z,86.42
2019-06-19T00:57:52.058Z,86.32
2019-06-19T00:58:52.085Z,86.42
2019-06-19T00:59:58.051Z,86.99
2019-06-19T01:00:52.130Z,86.52
2019-06-19T01:01:52.151Z,86.52
2019-06-19T01:02:52.177Z,86.99
2019-06-19T01:03:52.198Z,87.19
2019-06-19T01:04:52.223Z,86.42
2019-06-19T01:05:52.244Z,86.22
2019-06-19T01:06:52.271Z,86.32
2019-06-19T01:07:52.293Z,86.52
2019-06-19T01:08:52.725Z,86.61
2019-06-19T01:09:52.341Z,86.99
2019-06-19T01:10:52.361Z,87.09
2019-06-19T01:11:52.384Z,87.57
2019-06-19T01:12:52.406Z,87.57
2019-06-19T01:13:52.429Z,87.57
2019-06-19T01:14:52.450Z,88.06
2019-06-19T01:15:52.477Z,87.67
2019-06-19T01:16:52.497Z,87.67
2019-06-19T01:17:52.536Z,87.57
2019-06-19T01:18:52.546Z,88.20
2019-06-19T01:19:52.571Z,88.10
2019-06-19T01:20:52.592Z,88.10
2019-06-19T01:21:52.615Z,88.20
2019-06-19T01:22:52.636Z,88.34
2019-06-19T01:23:52.660Z,88.10
2019-06-19T01:24:52.689Z,88.30
2019-06-19T01:25:52.708Z,88.59
2019-06-19T01:26:52.731Z,88.49
2019-06-19T01:27:52.754Z,88.59
2019-06-19T01:28:52.777Z,88.49
2019-06-19T01:30:07.771Z,88.59
2019-06-19T01:30:52.913Z,88.59
2019-06-19T01:31:52.906Z,88.78
2019-06-19T01:32:52.924Z,88.20
2019-06-19T01:33:52.985Z,88.68
2019-06-19T01:34:52.974Z,88.87
2019-06-19T01:35:52.962Z,88.78
2019-06-19T01:36:52.961Z,88.39
2019-06-19T01:37:52.983Z,88.39
2019-06-19T01:38:53.006Z,89.93
2019-06-19T01:39:53.027Z,89.93
2019-06-19T01:40:53.056Z,89.64
2019-06-19T01:41:53.076Z,89.54
2019-06-19T01:42:53.110Z,89.64
2019-06-19T01:43:53.121Z,89.74
2019-06-19T01:44:53.144Z,89.83
2019-06-19T01:45:53.186Z,89.64
2019-06-19T01:46:53.191Z,89.93
2019-06-19T01:47:53.217Z,89.83
2019-06-19T01:48:53.238Z,89.74
2019-06-19T01:49:53.261Z,90.03
2019-06-19T01:50:53.283Z,89.74
2019-06-19T01:51:53.305Z,89.83
2019-06-19T01:52:53.329Z,89.74
2019-06-19T01:53:53.353Z,89.74
2019-06-19T01:54:53.375Z,89.54
2019-06-19T01:55:53.397Z,89.74
2019-06-19T01:56:53.420Z,89.54
2019-06-19T01:57:53.451Z,89.74
2019-06-19T01:58:53.465Z,89.54
2019-06-19T01:59:53.488Z,89.83
2019-06-19T02:00:53.510Z,89.93
2019-06-19T02:01:53.536Z,90.03
2019-06-19T02:02:53.557Z,90.22
2019-06-19T02:03:53.580Z,90.12
2019-06-19T02:04:53.605Z,90.03
2019-06-19T02:05:53.631Z,89.83
2019-06-19T02:06:53.652Z,90.51
2019-06-19T02:07:53.670Z,90.22
2019-06-19T02:08:53.703Z,89.93
2019-06-19T02:09:53.719Z,90.41
2019-06-19T02:10:53.745Z,90.41
2019-06-19T02:11:53.765Z,90.80
2019-06-19T02:12:53.787Z,90.60
2019-06-19T02:13:53.809Z,90.51
2019-06-19T02:14:53.837Z,90.41
2019-06-19T02:15:53.857Z,90.31
2019-06-19T02:16:53.879Z,90.22
2019-06-19T02:17:53.902Z,90.03
2019-06-19T02:18:53.932Z,90.03
2019-06-19T02:19:53.949Z,90.22
2019-06-19T02:20:53.988Z,90.31
2019-06-19T02:21:53.990Z,89.98
2019-06-19T02:22:54.016Z,90.17
2019-06-19T02:23:54.036Z,90.12
2019-06-19T02:24:54.064Z,90.46
2019-06-19T02:25:54.456Z,89.89
2019-06-19T02:26:54.105Z,90.27
2019-06-19T02:27:54.130Z,90.46
2019-06-19T02:28:54.153Z,90.27
2019-06-19T02:29:54.177Z,90.46
2019-06-19T02:31:04.584Z,90.56
2019-06-19T02:31:54.451Z,90.46
2019-06-19T02:32:54.247Z,90.66
2019-06-19T02:33:54.270Z,90.75
2019-06-19T02:34:54.291Z,90.46
2019-06-19T02:35:54.310Z,90.56
2019-06-19T02:36:54.367Z,91.04
2019-06-19T02:37:54.361Z,91.13
2019-06-19T02:38:54.382Z,91.13
2019-06-19T02:39:54.406Z,90.94
2019-06-19T02:40:54.445Z,90.94
2019-06-19T02:41:54.451Z,91.42
2019-06-19T02:42:54.472Z,90.94
2019-06-19T02:43:54.496Z,91.81
2019-06-19T02:44:54.520Z,91.61
2019-06-19T02:45:54.541Z,91.42
2019-06-19T02:46:54.569Z,91.71
2019-06-19T02:47:54.588Z,91.71
2019-06-19T02:48:54.610Z,91.61
2019-06-19T02:49:54.633Z,91.81
2019-06-19T02:50:54.654Z,91.42
2019-06-19T02:51:54.677Z,91.71
2019-06-19T02:52:54.700Z,91.42
2019-06-19T02:53:54.803Z,91.61
2019-06-19T02:54:54.814Z,91.61
2019-06-19T02:55:54.801Z,91.71
2019-06-19T02:56:54.871Z,91.81
2019-06-19T02:57:54.865Z,91.71
2019-06-19T02:58:54.872Z,92.19
2019-06-19T02:59:54.861Z,91.61
2019-06-19T03:01:10.019Z,92.19
2019-06-19T03:01:54.907Z,91.71
2019-06-19T03:02:54.929Z,92.29
2019-06-19T03:03:54.950Z,92.00
2019-06-19T03:04:54.975Z,91.90
2019-06-19T03:05:54.997Z,91.81
2019-06-19T03:06:55.020Z,91.71
2019-06-19T03:07:55.043Z,91.71
2019-06-19T03:08:55.066Z,91.71
2019-06-19T03:09:55.089Z,91.71
2019-06-19T03:10:55.112Z,91.71
2019-06-19T03:11:55.134Z,91.42
2019-06-19T03:12:55.170Z,91.81
2019-06-19T03:13:55.200Z,91.71
2019-06-19T03:14:55.206Z,91.71
2019-06-19T03:15:55.224Z,91.81
2019-06-19T03:16:55.266Z,91.71
2019-06-19T03:17:55.273Z,92.29
2019-06-19T03:18:55.293Z,91.81
2019-06-19T03:19:55.318Z,91.61
2019-06-19T03:20:55.342Z,91.90
2019-06-19T03:21:55.364Z,91.42
2019-06-19T03:22:55.386Z,91.61
2019-06-19T03:23:55.412Z,92.00
2019-06-19T03:24:55.430Z,91.61
2019-06-19T03:25:55.456Z,91.90
2019-06-19T03:26:55.478Z,91.81
2019-06-19T03:27:55.529Z,91.81
2019-06-19T03:28:55.522Z,91.71
2019-06-19T03:29:57.762Z,91.71
2019-06-19T03:30:55.573Z,91.81
2019-06-19T03:31:55.595Z,91.71
2019-06-19T03:32:55.623Z,91.81
2019-06-19T03:33:55.637Z,91.81
2019-06-19T03:34:55.663Z,91.42
2019-06-19T03:35:55.680Z,91.90
2019-06-19T03:36:55.705Z,91.81
2019-06-19T03:37:55.728Z,91.61
2019-06-19T03:38:55.753Z,91.81
2019-06-19T03:39:55.779Z,91.61
2019-06-19T03:40:55.797Z,91.71
2019-06-19T03:41:55.819Z,91.52
2019-06-19T03:42:55.843Z,91.90
2019-06-19T03:43:55.866Z,91.42
2019-06-19T03:44:55.888Z,91.61
2019-06-19T03:45:55.912Z,91.71
2019-06-19T03:46:55.934Z,91.71
2019-06-19T03:47:55.958Z,91.81
2019-06-19T03:48:55.986Z,91.71
2019-06-19T03:49:56.004Z,91.61
2019-06-19T03:50:56.027Z,92.29
2019-06-19T03:51:56.050Z,92.00
2019-06-19T03:52:56.070Z,92.10
2019-06-19T03:53:56.095Z,92.19
2019-06-19T03:54:56.117Z,92.10
2019-06-19T03:55:56.141Z,92.10
2019-06-19T03:56:56.165Z,92.00
2019-06-19T03:57:56.187Z,91.61
2019-06-19T03:58:56.214Z,92.10
2019-06-19T03:59:56.232Z,92.00
2019-06-19T04:00:56.255Z,92.29
2019-06-19T04:01:56.277Z,92.10
2019-06-19T04:02:56.302Z,92.10
2019-06-19T04:03:56.324Z,92.00
2019-06-19T04:04:56.345Z,92.00
2019-06-19T04:05:56.375Z,92.10
2019-06-19T04:06:56.396Z,92.29
2019-06-19T04:07:56.417Z,92.10
2019-06-19T04:08:56.439Z,92.10
2019-06-19T04:09:56.461Z,92.48
2019-06-19T04:10:56.485Z,92.67
2019-06-19T04:11:56.511Z,92.00
2019-06-19T04:12:56.531Z,92.29
2019-06-19T04:13:56.556Z,92.00
2019-06-19T04:14:56.578Z,92.57
2019-06-19T04:15:56.605Z,92.57
2019-06-19T04:16:56.654Z,92.38
2019-06-19T04:17:56.703Z,92.29
2019-06-19T04:18:56.702Z,92.10
2019-06-19T04:19:56.767Z,92.10
2019-06-19T04:20:59.501Z,92.14
2019-06-19T04:21:56.762Z,92.14
2019-06-19T04:22:56.764Z,91.95
2019-06-19T04:23:56.783Z,92.24
2019-06-19T04:24:56.808Z,92.33
2019-06-19T04:25:56.834Z,92.05
2019-06-19T04:26:56.857Z,92.33
2019-06-19T04:27:56.880Z,92.62
2019-06-19T04:28:56.898Z,92.05
2019-06-19T04:29:56.925Z,91.95
2019-06-19T04:30:56.947Z,92.05
2019-06-19T04:32:06.254Z,92.33
2019-06-19T04:32:56.996Z,92.14
2019-06-19T04:33:57.016Z,92.52
2019-06-19T04:34:57.039Z,92.24
2019-06-19T04:35:57.062Z,92.33
2019-06-19T04:36:57.085Z,92.05
2019-06-19T04:37:57.107Z,91.95
2019-06-19T04:38:57.135Z,91.66
2019-06-19T04:39:57.156Z,92.43
2019-06-19T04:40:57.178Z,92.14
2019-06-19T04:41:57.284Z,91.85
2019-06-19T04:42:57.224Z,92.33
2019-06-19T04:43:57.248Z,92.33
2019-06-19T04:44:57.271Z,92.33
2019-06-19T04:45:57.295Z,92.33
2019-06-19T04:46:57.316Z,92.24
2019-06-19T04:47:57.339Z,92.33
2019-06-19T04:48:57.363Z,92.14
2019-06-19T04:49:57.385Z,92.24
2019-06-19T04:50:57.413Z,92.05
2019-06-19T04:51:57.433Z,92.14
2019-06-19T04:52:57.460Z,92.24
2019-06-19T04:53:57.481Z,92.62
2019-06-19T04:54:57.504Z,92.29
2019-06-19T04:55:57.529Z,92.43
2019-06-19T04:56:57.552Z,92.09
2019-06-19T04:57:57.573Z,92.09
2019-06-19T04:58:57.597Z,92.19
2019-06-19T04:59:57.620Z,92.29
2019-06-19T05:00:57.643Z,92.29
2019-06-19T05:01:57.667Z,92.19
2019-06-19T05:02:57.692Z,92.29
2019-06-19T05:03:57.713Z,92.19
2019-06-19T05:04:57.736Z,92.29
2019-06-19T05:05:57.760Z,92.09
2019-06-19T05:06:57.784Z,92.29
2019-06-19T05:07:57.839Z,92.19
2019-06-19T05:08:57.829Z,92.38
2019-06-19T05:09:57.853Z,92.29
2019-06-19T05:10:57.884Z,92.29
2019-06-19T05:11:57.902Z,91.99
2019-06-19T05:12:57.925Z,92.43
2019-06-19T05:13:57.949Z,92.13
2019-06-19T05:14:57.973Z,92.43
2019-06-19T05:15:57.999Z,92.52
2019-06-19T05:16:58.019Z,92.43
2019-06-19T05:17:58.053Z,92.43
2019-06-19T05:18:58.067Z,91.94
2019-06-19T05:19:58.090Z,91.89
2019-06-19T05:20:58.113Z,91.99
2019-06-19T05:21:58.142Z,91.31
2019-06-19T05:22:58.160Z,91.65
2019-06-19T05:23:58.186Z,91.27
2019-06-19T05:24:58.210Z,90.97
2019-06-19T05:25:58.235Z,90.69
2019-06-19T05:26:58.260Z,90.25
2019-06-19T05:27:58.282Z,90.34
2019-06-19T05:28:58.307Z,90.34
2019-06-19T05:29:58.333Z,89.81
2019-06-19T05:30:58.359Z,89.33
2019-06-19T05:31:58.635Z,89.47
2019-06-19T05:32:58.406Z,89.18
2019-06-19T05:33:58.433Z,88.51
2019-06-19T05:34:58.459Z,88.17
2019-06-19T05:35:58.499Z,87.49
2019-06-19T05:36:58.512Z,87.59
2019-06-19T05:37:58.608Z,86.72
2019-06-19T05:38:58.611Z,86.96
2019-06-19T05:39:58.634Z,86.96
2019-06-19T05:40:58.681Z,86.66
2019-06-19T05:41:58.676Z,86.28
2019-06-19T05:42:58.665Z,85.89
2019-06-19T05:43:58.691Z,85.80
2019-06-19T05:44:58.715Z,85.80
2019-06-19T05:45:58.743Z,85.41
2019-06-19T05:46:58.768Z,85.70
2019-06-19T05:47:58.792Z,85.80
2019-06-19T05:48:58.820Z,85.89
2019-06-19T05:49:58.843Z,86.38
2019-06-19T05:50:58.872Z,86.57
2019-06-19T05:51:58.908Z,86.57
2019-06-19T05:52:58.920Z,86.66
2019-06-19T05:53:58.949Z,86.28
2019-06-19T05:54:58.971Z,85.89
2019-06-19T05:55:58.995Z,86.57
2019-06-19T05:56:59.022Z,86.38
2019-06-19T05:57:59.047Z,86.38
2019-06-19T05:58:59.071Z,86.57
2019-06-19T05:59:59.096Z,86.38
2019-06-19T06:00:59.152Z,86.66
2019-06-19T06:01:59.191Z,86.47
2019-06-19T06:02:59.177Z,86.28
2019-06-19T06:03:59.199Z,86.66
2019-06-19T06:04:59.227Z,86.76
2019-06-19T06:05:59.268Z,86.76
2019-06-19T06:06:59.280Z,86.96
2019-06-19T06:07:59.324Z,86.38
2019-06-19T06:08:59.326Z,86.76
2019-06-19T06:09:59.352Z,86.76
2019-06-19T06:10:59.376Z,86.76
2019-06-19T06:11:59.404Z,86.76
2019-06-19T06:12:59.428Z,86.38
2019-06-19T06:13:59.455Z,86.52
2019-06-19T06:14:59.482Z,86.52
2019-06-19T06:15:59.502Z,86.61
2019-06-19T06:16:59.529Z,86.42
2019-06-19T06:17:59.556Z,86.22
2019-06-19T06:18:59.581Z,86.03
2019-06-19T06:19:59.607Z,86.32
2019-06-19T06:20:59.634Z,86.52
2019-06-19T06:21:59.660Z,85.78
2019-06-19T06:22:59.687Z,85.88
2019-06-19T06:23:59.724Z,86.02
2019-06-19T06:24:59.740Z,85.44
2019-06-19T06:25:59.766Z,85.63
2019-06-19T06:26:59.793Z,85.48
2019-06-19T06:27:59.819Z,83.98
2019-06-19T06:28:59.867Z,83.49
2019-06-19T06:29:59.876Z,82.72
2019-06-19T06:30:59.903Z,82.62
2019-06-19T06:31:59.930Z,82.08
2019-06-19T06:33:08.661Z,82.18
2019-06-19T06:33:59.986Z,81.54
2019-06-19T06:35:00.019Z,82.03
2019-06-19T06:36:00.044Z,81.35
2019-06-19T06:37:00.075Z,81.39
2019-06-19T06:38:00.101Z,81.20
2019-06-19T06:39:00.130Z,79.93
2019-06-19T06:40:00.159Z,79.10
2019-06-19T06:41:00.189Z,78.33
2019-06-19T06:42:00.218Z,78.42
2019-06-19T06:43:00.248Z,78.17
2019-06-19T06:44:02.083Z,78.46
2019-06-19T06:45:00.308Z,78.31
2019-06-19T06:46:00.368Z,78.54
2019-06-19T06:47:00.370Z,78.44
2019-06-19T06:48:00.403Z,77.99
2019-06-19T06:49:00.441Z,77.90
2019-06-19T06:50:00.588Z,77.64
2019-06-19T06:51:00.519Z,77.74
2019-06-19T06:52:01.277Z,77.00
2019-06-19T06:53:00.585Z,76.90
2019-06-19T06:54:00.587Z,76.45
2019-06-19T06:55:00.617Z,75.38
2019-06-19T06:56:00.646Z,74.74
2019-06-19T06:57:00.683Z,74.06
2019-06-19T06:58:00.714Z,73.47
2019-06-19T06:59:00.791Z,71.76
2019-06-19T07:00:00.779Z,70.98
2019-06-19T07:01:00.811Z,70.88
2019-06-19T07:02:00.846Z,71.31
2019-06-19T07:03:00.879Z,72.19
2019-06-19T07:04:00.954Z,71.80
2019-06-19T07:05:00.953Z,71.64
2019-06-19T07:06:04.006Z,71.15
2019-06-19T07:07:01.013Z,69.78
2019-06-19T07:08:01.109Z,70.01
2019-06-19T07:09:01.073Z,70.01
2019-06-19T07:10:01.109Z,70.24
2019-06-19T07:11:01.139Z,67.80
2019-06-19T07:12:01.172Z,67.22
2019-06-19T07:13:01.205Z,66.34
2019-06-19T07:14:01.236Z,67.44
2019-06-19T07:15:01.277Z,67.64
2019-06-19T07:16:01.307Z,66.96
2019-06-19T07:17:01.345Z,66.96
2019-06-19T07:18:01.377Z,66.11
2019-06-19T07:19:01.406Z,66.86
2019-06-19T07:20:01.443Z,67.97
2019-06-19T07:21:01.472Z,66.50
2019-06-19T07:22:01.507Z,66.21
2019-06-19T07:23:01.544Z,65.43
2019-06-19T07:24:01.576Z,64.87
2019-06-19T07:25:01.609Z,63.48
2019-06-19T07:26:01.645Z,63.90
2019-06-19T07:27:01.681Z,64.19
2019-06-19T07:28:01.715Z,63.80
2019-06-19T07:29:01.747Z,64.12
2019-06-19T07:30:01.825Z,63.05
2019-06-19T07:31:01.820Z,61.97
2019-06-19T07:32:01.853Z,61.97
2019-06-19T07:33:01.918Z,62.49
2019-06-19T07:34:01.921Z,62.00
2019-06-19T07:35:01.955Z,61.61
2019-06-19T07:36:01.999Z,61.74
2019-06-19T07:37:02.032Z,61.83
2019-06-19T07:38:02.097Z,61.05
2019-06-19T07:39:02.096Z,60.08
2019-06-19T07:40:02.140Z,60.66
2019-06-19T07:41:02.175Z,61.44
2019-06-19T07:42:02.204Z,62.45
2019-06-19T07:43:02.264Z,61.47
2019-06-19T07:44:02.275Z,60.79
2019-06-19T07:45:02.313Z,61.08
2019-06-19T07:46:02.350Z,61.87
2019-06-19T07:47:02.431Z,60.21
2019-06-19T07:48:02.446Z,60.40
2019-06-19T07:49:02.514Z,60.10
2019-06-19T07:50:02.526Z,60.99
2019-06-19T07:51:02.529Z,61.70
2019-06-19T07:52:02.614Z,61.99
2019-06-19T07:53:02.601Z,61.34
2019-06-19T07:54:02.654Z,61.05
2019-06-19T07:55:02.675Z,60.36
2019-06-19T07:56:02.714Z,60.06
2019-06-19T07:57:02.834Z,60.36
2019-06-19T07:58:02.785Z,61.57
2019-06-19T07:59:02.825Z,62.12
2019-06-19T08:00:02.861Z,62.05
2019-06-19T08:01:02.951Z,62.15
2019-06-19T08:02:04.806Z,58.82
2019-06-19T08:03:02.986Z,58.14
2019-06-19T08:04:03.008Z,58.92
2019-06-19T08:05:03.046Z,58.33
2019-06-19T08:06:04.027Z,58.14
2019-06-19T08:07:03.134Z,58.43
2019-06-19T08:08:03.160Z,58.82
2019-06-19T08:09:03.199Z,59.05
2019-06-19T08:10:03.235Z,57.77
2019-06-19T08:11:03.271Z,57.70
2019-06-19T08:12:03.362Z,57.80
2019-06-19T08:13:03.351Z,58.58
2019-06-19T08:14:03.461Z,58.58
2019-06-19T08:15:03.420Z,58.00
2019-06-19T08:16:03.459Z,58.22
2019-06-19T08:17:03.501Z,58.51
2019-06-19T08:18:03.572Z,57.63
2019-06-19T08:19:05.253Z,56.35
2019-06-19T08:20:03.616Z,55.47
2019-06-19T08:21:03.653Z,55.57
2019-06-19T08:22:03.693Z,55.57
2019-06-19T08:23:03.727Z,56.06
2019-06-19T08:24:03.769Z,56.74
2019-06-19T08:25:03.806Z,55.47
2019-06-19T08:26:03.844Z,55.27
2019-06-19T08:27:03.881Z,55.30
2019-06-19T08:28:03.919Z,54.98
2019-06-19T08:29:03.957Z,55.20
2019-06-19T08:30:03.996Z,55.69
2019-06-19T08:31:04.037Z,55.49
2019-06-19T08:32:04.081Z,55.03
2019-06-19T08:33:04.113Z,55.82
2019-06-19T08:34:13.744Z,55.33
2019-06-19T08:35:04.190Z,56.11
2019-06-19T08:36:04.271Z,57.49
2019-06-19T08:37:04.272Z,56.73
2019-06-19T08:38:04.381Z,55.35
2019-06-19T08:39:04.395Z,53.39
2019-06-19T08:40:04.437Z,53.88
2019-06-19T08:41:04.447Z,53.58
2019-06-19T08:42:04.471Z,53.88
2019-06-19T08:43:04.505Z,54.69
2019-06-19T08:44:04.580Z,54.60
2019-06-19T08:45:04.584Z,53.81
2019-06-19T08:46:04.624Z,53.93
2019-06-19T08:47:04.671Z,53.83
2019-06-19T08:48:04.702Z,54.62
2019-06-19T08:49:04.740Z,53.74
2019-06-19T08:50:04.783Z,53.36
2019-06-19T08:51:04.823Z,54.25
2019-06-19T08:52:04.861Z,52.78
2019-06-19T08:53:04.903Z,52.80
2019-06-19T08:54:04.942Z,54.47
2019-06-19T08:55:04.985Z,55.95
2019-06-19T08:56:05.025Z,52.21
2019-06-19T08:57:05.063Z,51.92
2019-06-19T08:58:05.104Z,51.72
2019-06-19T08:59:05.142Z,52.21
2019-06-19T09:00:05.209Z,51.12
2019-06-19T09:01:05.223Z,50.34
2019-06-19T09:02:05.266Z,50.36
2019-06-19T09:03:05.315Z,51.74
2019-06-19T09:04:05.378Z,52.83
2019-06-19T09:05:05.390Z,51.54
2019-06-19T09:06:05.431Z,49.67
2019-06-19T09:07:05.478Z,49.57
2019-06-19T09:08:05.507Z,49.38
2019-06-19T09:09:05.548Z,50.29
2019-06-19T09:10:05.721Z,50.38
2019-06-19T09:11:05.630Z,48.61
2019-06-19T09:12:05.670Z,48.81
2019-06-19T09:13:05.727Z,49.01
2019-06-19T09:14:05.751Z,49.92
2019-06-19T09:15:05.796Z,50.21
2019-06-19T09:16:05.830Z,49.72
2019-06-19T09:17:05.874Z,50.34
2019-06-19T09:18:05.915Z,49.25
2019-06-19T09:19:05.963Z,47.77
2019-06-19T09:20:05.994Z,47.77
2019-06-19T09:21:06.042Z,48.07
2019-06-19T09:22:06.079Z,47.47
2019-06-19T09:23:06.121Z,48.27
2019-06-19T09:24:06.160Z,49.35
2019-06-19T09:25:08.074Z,49.65
2019-06-19T09:26:06.249Z,49.15
2019-06-19T09:27:06.325Z,48.98
2019-06-19T09:28:06.398Z,49.18
2019-06-19T09:29:06.397Z,49.18
2019-06-19T09:30:06.448Z,48.19
2019-06-19T09:31:06.450Z,49.10
2019-06-19T09:32:06.487Z,48.90
2019-06-19T09:33:06.532Z,48.09
2019-06-19T09:34:06.573Z,48.02
2019-06-19T09:35:06.615Z,47.62
2019-06-19T09:36:06.656Z,47.32
2019-06-19T09:37:06.729Z,47.81
2019-06-19T09:38:06.734Z,47.62
2019-06-19T09:39:06.777Z,47.52
2019-06-19T09:40:06.822Z,47.74
2019-06-19T09:41:06.857Z,46.66
2019-06-19T09:42:06.902Z,48.83
2019-06-19T09:43:06.944Z,48.11
2019-06-19T09:44:06.983Z,47.05
2019-06-19T09:45:07.025Z,47.34
2019-06-19T09:46:07.094Z,47.74
2019-06-19T09:47:07.108Z,46.06
2019-06-19T09:48:07.152Z,47.15
2019-06-19T09:49:07.192Z,46.66
2019-06-19T09:50:07.234Z,46.16
2019-06-19T09:51:07.273Z,45.96
2019-06-19T09:52:07.313Z,46.45
2019-06-19T09:53:07.363Z,46.85
2019-06-19T09:54:07.399Z,46.55
2019-06-19T09:55:07.439Z,46.48
2019-06-19T09:56:07.482Z,46.48
2019-06-19T09:57:07.520Z,46.38
2019-06-19T09:58:07.566Z,46.18
2019-06-19T09:59:07.603Z,45.29
2019-06-19T10:00:07.646Z,45.98
2019-06-19T10:01:07.680Z,46.67
2019-06-19T10:02:11.384Z,46.48
2019-06-19T10:03:07.767Z,45.89
2019-06-19T10:04:07.809Z,45.17
2019-06-19T10:05:08.137Z,45.39
2019-06-19T10:06:07.906Z,45.79
2019-06-19T10:07:07.931Z,45.68
2019-06-19T10:08:07.976Z,46.67
2019-06-19T10:09:08.010Z,47.27
2019-06-19T10:10:08.050Z,46.60
2019-06-19T10:11:08.090Z,46.67
2019-06-19T10:12:08.127Z,46.18
2019-06-19T10:13:08.177Z,46.78
2019-06-19T10:14:08.273Z,46.38
2019-06-19T10:15:08.340Z,46.97
2019-06-19T10:16:08.333Z,46.18
2019-06-19T10:17:08.352Z,45.89
2019-06-19T10:18:11.830Z,46.18
2019-06-19T10:19:08.412Z,46.67
2019-06-19T10:20:08.455Z,46.60
2019-06-19T10:21:08.489Z,46.50
2019-06-19T10:22:08.531Z,46.01
2019-06-19T10:23:08.582Z,46.01
2019-06-19T10:24:08.618Z,45.23
2019-06-19T10:25:08.657Z,45.53
2019-06-19T10:26:08.696Z,44.94
2019-06-19T10:27:08.743Z,44.67
2019-06-19T10:28:08.805Z,44.37
2019-06-19T10:29:08.821Z,44.59
2019-06-19T10:30:08.865Z,44.41
2019-06-19T10:31:08.907Z,44.31
2019-06-19T10:32:09.942Z,44.53
2019-06-19T10:33:08.991Z,44.25
2019-06-19T10:34:09.036Z,43.68
2019-06-19T10:35:23.023Z,44.07
2019-06-19T10:36:09.123Z,44.29
2019-06-19T10:37:09.206Z,43.42
2019-06-19T10:38:09.207Z,42.43
2019-06-19T10:39:09.250Z,42.03
2019-06-19T10:40:09.295Z,42.13
2019-06-19T10:41:09.338Z,41.36
2019-06-19T10:42:09.382Z,41.77
2019-06-19T10:43:09.428Z,40.88
2019-06-19T10:44:09.470Z,41.30
2019-06-19T10:45:09.511Z,42.69
2019-06-19T10:46:09.558Z,42.09
2019-06-19T10:47:09.601Z,42.21
2019-06-19T10:48:09.645Z,41.02
2019-06-19T10:49:09.691Z,40.82
2019-06-19T10:50:09.751Z,40.52
2019-06-19T10:51:09.778Z,40.74
2019-06-19T10:52:09.819Z,40.95
2019-06-19T10:53:09.865Z,40.88
2019-06-19T10:54:09.912Z,40.98
2019-06-19T10:55:09.952Z,42.37
2019-06-19T10:56:09.997Z,42.05
2019-06-19T10:57:10.043Z,40.08
2019-06-19T10:58:10.089Z,39.88
2019-06-19T10:59:10.142Z,39.98
2019-06-19T11:00:10.218Z,39.18
2019-06-19T11:01:10.293Z,38.98
2019-06-19T11:02:10.678Z,39.50
2019-06-19T11:03:10.305Z,39.50
2019-06-19T11:04:10.352Z,39.80
2019-06-19T11:05:10.397Z,40.42
2019-06-19T11:06:10.439Z,40.04
2019-06-19T11:07:10.485Z,38.74
2019-06-19T11:08:13.829Z,37.96
2019-06-19T11:09:10.582Z,37.44
2019-06-19T11:10:10.619Z,37.56
2019-06-19T11:11:10.670Z,37.66
2019-06-19T11:12:10.710Z,38.06
2019-06-19T11:13:10.755Z,37.26
2019-06-19T11:14:10.800Z,37.26
2019-06-19T11:15:10.853Z,37.18
2019-06-19T11:16:10.891Z,36.98
2019-06-19T11:17:10.940Z,37.68
2019-06-19T11:18:10.992Z,37.58
2019-06-19T11:19:11.025Z,37.58
2019-06-19T11:20:11.074Z,36.98
2019-06-19T11:21:11.115Z,36.86
2019-06-19T11:22:11.162Z,37.56
2019-06-19T11:23:11.205Z,38.04
2019-06-19T11:24:11.253Z,36.93
2019-06-19T11:25:11.290Z,37.52
2019-06-19T11:26:11.336Z,37.90
2019-06-19T11:27:11.379Z,39.10
2019-06-19T11:28:11.421Z,39.40
2019-06-19T11:29:11.472Z,39.16
2019-06-19T11:30:11.506Z,39.25
2019-06-19T11:31:11.547Z,39.34
2019-06-19T11:32:11.588Z,40.22
2019-06-19T11:33:11.631Z,41.00
2019-06-19T11:34:11.673Z,40.66
2019-06-19T11:35:11.717Z,40.96
2019-06-19T11:36:11.758Z,41.63
2019-06-19T11:37:11.798Z,41.82
2019-06-19T11:38:11.836Z,41.71
2019-06-19T11:39:11.883Z,42.09
2019-06-19T11:40:11.914Z,41.89
2019-06-19T11:41:11.969Z,42.17
2019-06-19T11:42:12.007Z,41.75
2019-06-19T11:43:12.032Z,42.65
2019-06-19T11:44:12.078Z,42.82
2019-06-19T11:45:12.163Z,42.82
2019-06-19T11:46:12.224Z,43.12
2019-06-19T11:47:12.231Z,42.43
2019-06-19T11:48:12.226Z,43.22
2019-06-19T11:49:12.266Z,43.12
2019-06-19T11:50:12.304Z,42.72
2019-06-19T11:51:12.345Z,43.24
2019-06-19T11:52:12.383Z,43.06
2019-06-19T11:53:12.423Z,43.16
2019-06-19T11:54:12.471Z,42.49
2019-06-19T11:55:12.507Z,43.18
2019-06-19T11:56:12.544Z,42.11
2019-06-19T11:57:12.586Z,42.41
2019-06-19T11:58:12.625Z,42.11
2019-06-19T11:59:12.667Z,42.11
2019-06-19T12:00:12.813Z,41.82
2019-06-19T12:01:12.752Z,40.82
2019-06-19T12:02:13.087Z,40.82
2019-06-19T12:03:25.829Z,41.53
2019-06-19T12:04:12.866Z,41.93
2019-06-19T12:05:12.911Z,41.53
2019-06-19T12:06:14.361Z,42.43
2019-06-19T12:07:12.993Z,42.13
2019-06-19T12:08:13.030Z,42.45
2019-06-19T12:09:13.071Z,42.35
2019-06-19T12:10:13.113Z,42.15
2019-06-19T12:11:15.055Z,41.97
2019-06-19T12:12:13.195Z,41.08
2019-06-19T12:13:13.238Z,40.40
2019-06-19T12:14:18.512Z,39.90
2019-06-19T12:15:13.317Z,40.10
2019-06-19T12:16:13.359Z,40.28
2019-06-19T12:17:13.404Z,40.16
2019-06-19T12:18:13.439Z,40.16
2019-06-19T12:19:13.479Z,39.86
2019-06-19T12:20:13.520Z,39.17
2019-06-19T12:21:13.563Z,39.47
2019-06-19T12:22:13.600Z,40.98
2019-06-19T12:23:13.641Z,39.09
2019-06-19T12:24:13.682Z,37.81
2019-06-19T12:25:13.723Z,37.51
2019-06-19T12:26:13.763Z,37.32
2019-06-19T12:27:13.805Z,37.71
2019-06-19T12:28:13.944Z,37.51
2019-06-19T12:29:13.885Z,37.49
2019-06-19T12:30:13.940Z,37.58
2019-06-19T12:31:13.967Z,37.49
2019-06-19T12:32:14.019Z,37.60
2019-06-19T12:33:14.103Z,37.28
2019-06-19T12:34:14.169Z,38.35
2019-06-19T12:35:14.161Z,37.76
2019-06-19T12:36:26.179Z,38.16
2019-06-19T12:37:14.210Z,38.65
2019-06-19T12:38:14.273Z,39.35
2019-06-19T12:39:14.290Z,39.95
2019-06-19T12:40:14.330Z,38.83
2019-06-19T12:41:14.370Z,38.04
2019-06-19T12:42:14.411Z,38.71
2019-06-19T12:43:14.451Z,39.11
2019-06-19T12:44:14.490Z,40.38
2019-06-19T12:45:14.594Z,40.88
2019-06-19T12:46:14.567Z,40.68
2019-06-19T12:47:14.606Z,40.36
2019-06-19T12:48:14.774Z,39.87
2019-06-19T12:49:14.684Z,40.36
2019-06-19T12:50:14.724Z,40.17
2019-06-19T12:51:14.767Z,40.07
2019-06-19T12:52:14.802Z,40.19
2019-06-19T12:53:14.841Z,40.09